Time;durP1;ratioP1;P1;durP2;ratioP2;P2;SDS_P1;SDS_P2;PMS_P1;PMS_P2;Temp;Humidity;BMP_temperature;BMP_pressure;BME280_temperature;BME280_humidity;BME280_pressure;Samples;Min_cycle;Max_cycle;Signal;HPM_P1;HPM_P2
2022/01/06 00:00:06;;;;;;;18.55;7.82;;;;;;;-2.14;100.00;97518.84;5076571;28;20044;-72
2022/01/06 00:02:38;;;;;;;20.45;7.97;;;;;;;-2.10;100.00;97517.63;5077170;28;20052;-74
2022/01/06 00:05:05;;;;;;;18.83;8.75;;;;;;;-1.98;100.00;97538.63;5076090;28;20048;-73
2022/01/06 00:07:32;;;;;;;19.52;7.43;;;;;;;-1.93;100.00;97545.41;5092664;28;20093;-73
2022/01/06 00:09:58;;;;;;;17.83;7.20;;;;;;;-1.82;100.00;97559.44;5091964;28;20062;-72
2022/01/06 00:12:32;;;;;;;19.88;7.97;;;;;;;-1.81;100.00;97549.69;5057593;28;20040;-73
2022/01/06 00:15:21;;;;;;;21.60;7.68;;;;;;;-1.91;100.00;97532.84;5091052;28;20184;-72
2022/01/06 00:18:11;;;;;;;19.88;7.60;;;;;;;-1.80;100.00;97536.28;5074168;28;20070;-73
2022/01/06 00:23:27;;;;;;;21.20;7.43;;;;;;;-1.64;100.00;97545.66;5074096;28;20047;-74
2022/01/06 00:25:52;;;;;;;20.70;8.27;;;;;;;-1.53;100.00;97566.78;5075800;28;20047;-74
2022/01/06 00:28:19;;;;;;;19.00;8.52;;;;;;;-1.53;100.00;97553.53;5090844;28;20088;-71
2022/01/06 00:30:45;;;;;;;17.42;6.57;;;;;;;-1.49;100.00;97554.97;5090959;28;20143;-74
2022/01/06 00:33:11;;;;;;;16.75;7.38;;;;;;;-1.67;100.00;97524.72;5057367;28;20043;-74
2022/01/06 00:35:38;;;;;;;17.58;6.88;;;;;;;-1.39;100.00;97571.78;5073417;28;20044;-73
2022/01/06 00:38:06;;;;;;;17.30;7.55;;;;;;;-1.41;100.00;97552.50;5073983;28;20040;-74
2022/01/06 00:40:33;;;;;;;14.18;6.13;;;;;;;-1.36;100.00;97566.19;5090622;28;20059;-73
2022/01/06 00:42:59;;;;;;;17.77;7.18;;;;;;;-1.31;100.00;97569.31;5040303;28;20451;-74
2022/01/06 00:45:24;;;;;;;18.05;6.53;;;;;;;-1.24;100.00;97570.50;5090695;28;20046;-73
2022/01/06 00:47:50;;;;;;;16.70;6.97;;;;;;;-1.30;100.00;97560.41;5073333;28;20044;-73
2022/01/06 00:50:16;;;;;;;15.93;6.25;;;;;;;-1.28;100.00;97561.13;5090100;28;20067;-74
2022/01/06 00:52:42;;;;;;;15.05;6.60;;;;;;;-1.34;100.00;97550.19;5056091;28;20040;-73
2022/01/06 00:55:08;;;;;;;12.73;5.70;;;;;;;-1.28;100.00;97550.53;5089627;28;20459;-74
2022/01/06 00:57:33;;;;;;;14.73;6.28;;;;;;;-1.16;100.00;97571.66;5073156;28;20044;-73
2022/01/06 00:59:59;;;;;;;16.05;6.93;;;;;;;-1.12;100.00;97573.91;5090712;28;20047;-74
2022/01/06 01:02:25;;;;;;;15.65;6.90;;;;;;;-1.07;100.00;97581.47;5056669;28;20051;-73
2022/01/06 01:04:51;;;;;;;14.60;6.13;;;;;;;-1.02;100.00;97580.13;5039910;28;20130;-74
2022/01/06 01:07:16;;;;;;;16.13;6.13;;;;;;;-1.27;100.00;97527.50;5073047;28;20051;-74
2022/01/06 01:09:42;;;;;;;13.50;6.30;;;;;;;-1.19;100.00;97529.50;5089277;28;20123;-73
2022/01/06 01:12:09;;;;;;;13.10;5.45;;;;;;;-1.16;100.00;97545.16;5072776;28;20075;-74
2022/01/06 01:14:52;;;;;;;11.35;4.75;;;;;;;-0.95;100.00;97577.81;5072725;28;20138;-74
2022/01/06 01:17:18;;;;;;;12.40;5.35;;;;;;;-1.13;100.00;97550.16;5058535;28;20535;-74
2022/01/06 01:19:44;;;;;;;13.95;6.43;;;;;;;-0.93;100.00;97578.50;5055960;28;20066;-76
2022/01/06 01:22:10;;;;;;;11.00;4.85;;;;;;;-0.91;100.00;97576.56;5072751;28;20094;-74
2022/01/06 01:24:36;;;;;;;11.40;5.13;;;;;;;-0.97;100.00;97556.69;5072713;28;20530;-73
2022/01/06 01:27:02;;;;;;;11.27;4.80;;;;;;;-0.90;100.00;97574.75;5089288;28;20143;-74
2022/01/06 01:29:30;;;;;;;14.38;4.60;;;;;;;-0.89;100.00;97564.00;5072888;28;20048;-74
2022/01/06 01:31:57;;;;;;;14.10;4.95;;;;;;;-0.93;100.00;97557.28;5089206;28;20177;-74
2022/01/06 01:34:26;;;;;;;12.48;4.25;;;;;;;-0.92;100.00;97561.59;5072727;28;20191;-74
2022/01/06 01:36:55;;;;;;;11.35;5.18;;;;;;;-0.93;100.00;97557.28;5090890;28;20078;-75
2022/01/06 01:39:21;;;;;;;13.15;4.78;;;;;;;-0.88;100.00;97570.97;5091426;28;20043;-75
2022/01/06 01:41:47;;;;;;;11.90;4.45;;;;;;;-0.86;100.00;97566.41;5074511;28;20055;-74
2022/01/06 01:44:16;;;;;;;11.93;5.63;;;;;;;-0.85;100.00;97570.72;5056209;28;20126;-75
2022/01/06 01:46:46;;;;;;;13.07;5.35;;;;;;;-0.87;100.00;97567.38;5092085;28;20048;-74
2022/01/06 01:51:46;;;;;;;12.70;5.43;;;;;;;-0.87;100.00;97570.03;5093979;28;20531;-72
2022/01/06 01:54:12;;;;;;;14.40;4.93;;;;;;;-1.08;100.00;97527.63;5093682;28;20134;-75
2022/01/06 01:56:38;;;;;;;10.70;4.38;;;;;;;-0.85;100.00;97570.72;5091821;28;20488;-74
2022/01/06 01:59:05;;;;;;;11.65;5.15;;;;;;;-0.88;100.00;97557.72;5090607;28;20117;-74
2022/01/06 02:01:31;;;;;;;16.52;6.38;;;;;;;-1.03;100.00;97543.13;5090548;28;20388;-75
2022/01/06 02:03:57;;;;;;;11.30;5.28;;;;;;;-0.91;100.00;97559.81;5071884;28;20051;-74
2022/01/06 02:06:23;;;;;;;12.07;5.18;;;;;;;-0.95;100.00;97548.63;5074949;28;20418;-72
2022/01/06 02:08:51;;;;;;;11.70;5.13;;;;;;;-0.82;100.00;97570.47;5059170;28;20047;-74
2022/01/06 02:11:18;;;;;;;13.85;5.07;;;;;;;-1.03;100.00;97535.16;5076170;28;20146;-72
2022/01/06 02:13:48;;;;;;;12.82;5.25;;;;;;;-0.94;100.00;97554.78;5094105;28;20051;-72
2022/01/06 02:16:21;;;;;;;12.10;5.35;;;;;;;-0.90;100.00;97567.63;5092675;28;20044;-73
2022/01/06 02:18:48;;;;;;;13.48;6.15;;;;;;;-1.00;100.00;97556.97;5092932;28;20047;-72
2022/01/06 02:21:14;;;;;;;14.77;7.05;;;;;;;-0.88;100.00;97570.97;5092377;28;20048;-73
2022/01/06 02:23:40;;;;;;;12.98;5.35;;;;;;;-0.90;100.00;97569.44;5075112;28;20097;-72
2022/01/06 02:26:05;;;;;;;15.18;5.53;;;;;;;-0.90;100.00;97572.94;5057993;28;20332;-71
2022/01/06 02:28:31;;;;;;;17.02;7.32;;;;;;;-0.87;100.00;97577.97;5074880;28;20487;-73
2022/01/06 02:30:58;;;;;;;20.52;8.43;;;;;;;-0.91;100.00;97570.44;5091404;28;20584;-75
2022/01/06 02:33:24;;;;;;;29.48;9.13;;;;;;;-0.85;100.00;97583.16;5075132;28;20422;-73
2022/01/06 02:35:51;;;;;;;26.48;9.68;;;;;;;-0.88;100.00;97584.25;5093705;28;20050;-74
2022/01/06 02:38:18;;;;;;;25.42;9.13;;;;;;;-0.86;100.00;97584.97;5075588;28;20135;-73
2022/01/06 02:40:45;;;;;;;20.30;8.18;;;;;;;-0.86;100.00;97584.97;5059059;28;20047;-74
2022/01/06 02:43:14;;;;;;;17.83;7.15;;;;;;;-0.85;100.00;97586.63;5075408;28;20036;-73
2022/01/06 02:45:40;;;;;;;18.67;7.40;;;;;;;-0.87;100.00;97585.94;5094240;28;20487;-74
2022/01/06 02:48:08;;;;;;;17.25;7.07;;;;;;;-0.86;100.00;97592.91;5076459;28;20040;-73
2022/01/06 02:50:40;;;;;;;14.25;6.18;;;;;;;-1.07;100.00;97561.09;5094531;28;20047;-73
2022/01/06 02:53:07;;;;;;;13.32;5.88;;;;;;;-0.88;100.00;97602.81;5093124;28;20040;-74
2022/01/06 02:55:33;;;;;;;13.55;5.95;;;;;;;-0.84;100.00;97604.25;5092271;28;20077;-74
2022/01/06 02:57:59;;;;;;;14.95;6.28;;;;;;;-1.03;100.00;97561.69;5092132;28;20044;-74
2022/01/06 03:00:25;;;;;;;14.88;7.22;;;;;;;-0.99;100.00;97568.41;5058632;28;20092;-72
2022/01/06 03:02:51;;;;;;;15.27;5.75;;;;;;;-1.17;100.00;97538.16;5074874;28;20043;-73
2022/01/06 03:05:17;;;;;;;12.95;6.30;;;;;;;-0.83;100.00;97595.31;5074866;28;20097;-73
2022/01/06 03:07:44;;;;;;;13.38;5.47;;;;;;;-0.88;100.00;97586.88;5091940;28;20452;-72
2022/01/06 03:10:14;;;;;;;12.60;5.45;;;;;;;-0.98;100.00;97573.59;5093060;28;20071;-71
2022/01/06 03:12:40;;;;;;;15.13;6.78;;;;;;;-0.82;100.00;97594.34;5092050;28;20043;-72
2022/01/06 03:15:07;;;;;;;12.10;5.50;;;;;;;-0.87;100.00;97593.91;5091435;28;20051;-72
2022/01/06 03:17:35;;;;;;;12.77;5.65;;;;;;;-0.89;100.00;97585.22;5091804;28;20048;-72
2022/01/06 03:20:03;;;;;;;13.90;6.97;;;;;;;-0.78;100.00;97603.72;5074332;28;20058;-72
2022/01/06 03:22:28;;;;;;;12.63;6.03;;;;;;;-0.81;100.00;97598.66;5091607;28;20128;-73
2022/01/06 03:24:54;;;;;;;13.65;5.95;;;;;;;-0.85;100.00;97591.09;5092508;28;20185;-68
2022/01/06 03:27:20;;;;;;;12.07;5.57;;;;;;;-0.88;100.00;97586.88;5074674;28;20519;-67
2022/01/06 03:29:47;;;;;;;13.85;5.72;;;;;;;-0.81;100.00;97596.00;5090571;28;20073;-68
2022/01/06 03:32:13;;;;;;;18.23;6.93;;;;;;;-0.82;100.00;97591.69;5057787;28;20070;-67
2022/01/06 03:34:39;;;;;;;14.15;6.00;;;;;;;-0.76;100.00;97601.78;5092303;28;20075;-68
2022/01/06 03:37:06;;;;;;;12.73;5.38;;;;;;;-0.99;100.00;97556.00;5091264;28;20072;-67
2022/01/06 03:39:32;;;;;;;11.80;4.90;;;;;;;-0.76;100.00;97599.13;5074212;28;20115;-66
2022/01/06 03:41:59;;;;;;;12.95;4.80;;;;;;;-0.82;100.00;97581.06;5092589;28;20586;-67
2022/01/06 03:44:24;;;;;;;12.43;6.20;;;;;;;-0.83;100.00;97589.16;5074087;28;20044;-67
2022/01/06 03:46:52;;;;;;;14.48;6.43;;;;;;;-0.85;100.00;97589.28;5091835;28;20377;-69
2022/01/06 03:49:18;;;;;;;13.88;5.25;;;;;;;-0.80;100.00;97595.06;5074060;28;20500;-66
2022/01/06 03:51:44;;;;;;;14.05;5.47;;;;;;;-1.08;100.00;97542.69;5074006;28;20036;-68
2022/01/06 03:54:10;;;;;;;12.63;4.75;;;;;;;-0.80;100.00;97589.75;5056908;28;20137;-66
2022/01/06 03:56:35;;;;;;;13.00;6.13;;;;;;;-0.83;100.00;97590.00;5092226;28;20056;-67
2022/01/06 03:59:02;;;;;;;14.77;5.38;;;;;;;-0.79;100.00;97595.91;5073766;28;20036;-69
2022/01/06 04:01:28;;;;;;;10.95;4.47;;;;;;;-0.88;100.00;97575.44;5056812;28;20212;-68
2022/01/06 04:03:53;;;;;;;13.55;5.70;;;;;;;-1.02;100.00;97550.13;5073905;28;20495;-70
2022/01/06 04:06:19;;;;;;;12.45;5.20;;;;;;;-1.03;100.00;97559.03;5056737;28;20044;-68
2022/01/06 04:08:45;;;;;;;12.23;5.00;;;;;;;-0.84;100.00;97591.00;5090610;28;20044;-67
2022/01/06 04:11:11;;;;;;;12.68;5.50;;;;;;;-0.86;100.00;97590.25;5056528;28;20099;-68
2022/01/06 04:13:37;;;;;;;13.00;5.40;;;;;;;-0.95;100.00;97577.81;5073770;28;20047;-69
2022/01/06 04:16:07;;;;;;;12.95;5.28;;;;;;;-0.98;100.00;97591.31;5091646;28;20429;-69
2022/01/06 04:18:33;;;;;;;15.70;5.40;;;;;;;-1.18;100.00;97558.53;5057590;28;20036;-69
2022/01/06 04:20:58;;;;;;;13.95;5.53;;;;;;;-1.02;100.00;97597.84;5075879;28;20079;-70
2022/01/06 04:23:24;;;;;;;14.05;5.68;;;;;;;-0.99;100.00;97605.53;5092140;28;20210;-67
2022/01/06 04:25:50;;;;;;;12.60;5.53;;;;;;;-1.04;100.00;97591.81;5057743;28;20146;-68
2022/01/06 04:28:16;;;;;;;15.25;6.80;;;;;;;-1.28;100.00;97558.47;5089278;28;20032;-71
2022/01/06 04:30:41;;;;;;;12.32;5.45;;;;;;;-1.09;100.00;97586.09;5072775;28;20142;-68
2022/01/06 04:33:07;;;;;;;12.35;5.22;;;;;;;-1.10;100.00;97587.88;5039619;28;20044;-69
2022/01/06 04:35:33;;;;;;;13.07;6.40;;;;;;;-1.04;100.00;97599.78;5073037;28;20055;-69
2022/01/06 04:37:59;;;;;;;11.95;4.90;;;;;;;-0.98;100.00;97609.88;5073577;28;20050;-69
2022/01/06 04:40:25;;;;;;;12.57;4.78;;;;;;;-1.06;100.00;97593.75;5089897;28;20051;-69
2022/01/06 04:42:50;;;;;;;10.45;3.65;;;;;;;-1.08;100.00;97606.31;5091217;28;20043;-70
2022/01/06 04:45:16;;;;;;;8.90;3.10;;;;;;;-1.11;100.00;97606.56;5055612;28;20133;-70
2022/01/06 04:47:42;;;;;;;12.15;2.80;;;;;;;-1.13;100.00;97603.19;5039079;28;20047;-70
2022/01/06 04:50:09;;;;;;;7.45;2.20;;;;;;;-1.19;100.00;97609.03;5039211;28;20055;-69
2022/01/06 04:52:35;;;;;;;10.77;2.60;;;;;;;-1.24;100.00;97602.31;5056210;28;20067;-70
2022/01/06 04:55:01;;;;;;;7.68;1.67;;;;;;;-1.40;100.00;97574.53;5089058;28;20490;-69
2022/01/06 04:57:28;;;;;;;7.97;1.88;;;;;;;-1.22;100.00;97605.66;5091146;28;20150;-69
2022/01/06 04:59:54;;;;;;;6.57;1.60;;;;;;;-1.15;100.00;97615.75;5072620;28;20052;-68
2022/01/06 05:02:20;;;;;;;10.48;2.58;;;;;;;-1.18;100.00;97621.31;5089105;28;20040;-68
2022/01/06 05:04:46;;;;;;;5.90;1.67;;;;;;;-1.17;100.00;97623.84;5055557;28;20120;-67
2022/01/06 05:07:11;;;;;;;7.25;1.77;;;;;;;-1.18;100.00;97626.59;5089001;28;20407;-67
2022/01/06 05:09:37;;;;;;;9.82;2.00;;;;;;;-1.24;100.00;97618.22;5088595;28;20047;-71
2022/01/06 05:12:03;;;;;;;10.30;2.08;;;;;;;-1.23;100.00;97622.53;5055504;28;20036;-68
2022/01/06 05:14:29;;;;;;;13.90;2.00;;;;;;;-1.14;100.00;97638.63;5090624;28;20158;-68
2022/01/06 05:16:56;;;;;;;9.05;2.35;;;;;;;-1.18;100.00;97637.22;5090793;28;20071;-69
2022/01/06 05:19:23;;;;;;;10.73;2.33;;;;;;;-1.34;100.00;97606.69;5072299;28;20051;-68
2022/01/06 05:21:51;;;;;;;8.40;2.10;;;;;;;-1.19;100.00;97630.22;5088672;28;20086;-70
2022/01/06 05:24:17;;;;;;;11.80;4.03;;;;;;;-1.18;100.00;97631.91;5088771;28;20044;-69
2022/01/06 05:26:44;;;;;;;13.45;2.92;;;;;;;-1.33;100.00;97608.34;5089044;28;20063;-68
2022/01/06 05:29:11;;;;;;;13.55;2.83;;;;;;;-1.35;100.00;97598.84;5088844;28;20093;-69
2022/01/06 05:31:37;;;;;;;8.15;2.30;;;;;;;-1.12;100.00;97631.41;5088769;28;20085;-69
2022/01/06 05:34:03;;;;;;;10.00;2.78;;;;;;;-1.08;100.00;97638.97;5072355;28;20047;-70
2022/01/06 05:36:29;;;;;;;15.70;2.60;;;;;;;-1.25;100.00;97621.81;5088819;28;20549;-70
2022/01/06 05:38:55;;;;;;;12.07;2.90;;;;;;;-1.15;100.00;97636.97;5090007;28;20056;-70
2022/01/06 05:41:21;;;;;;;10.43;3.30;;;;;;;-1.22;100.00;97641.94;5090188;28;20563;-70
2022/01/06 05:43:48;;;;;;;10.60;3.08;;;;;;;-1.24;100.00;97638.56;5088840;28;20044;-69
2022/01/06 05:46:15;;;;;;;10.48;2.90;;;;;;;-1.27;100.00;97620.28;5088528;28;20044;-70
2022/01/06 05:48:41;;;;;;;9.98;2.83;;;;;;;-1.35;100.00;97622.69;5072216;28;20052;-68
2022/01/06 05:51:07;;;;;;;10.90;3.03;;;;;;;-1.32;100.00;97631.22;5072077;28;20143;-70
2022/01/06 05:53:32;;;;;;;12.45;4.75;;;;;;;-1.35;100.00;97628.00;5055158;28;20174;-69
2022/01/06 05:55:58;;;;;;;8.88;3.15;;;;;;;-1.56;100.00;97596.19;5088625;28;20044;-69
2022/01/06 05:58:24;;;;;;;11.60;3.35;;;;;;;-1.34;100.00;97627.88;5055075;28;20095;-69
2022/01/06 06:00:50;;;;;;;19.27;4.45;;;;;;;-1.44;100.00;97616.34;5072275;28;20040;-69
2022/01/06 06:03:16;;;;;;;13.75;3.65;;;;;;;-1.34;100.00;97627.88;5071933;28;20044;-68
2022/01/06 06:05:42;;;;;;;13.40;3.90;;;;;;;-1.33;100.00;97626.91;5071876;28;20055;-69
2022/01/06 06:08:11;;;;;;;19.92;4.45;;;;;;;-1.29;100.00;97630.16;5054844;28;20411;-70
2022/01/06 06:10:37;;;;;;;18.20;4.85;;;;;;;-1.32;100.00;97625.94;5090116;28;20157;-71
2022/01/06 06:13:03;;;;;;;18.42;4.63;;;;;;;-1.29;100.00;97628.34;5071911;28;20051;-69
2022/01/06 06:15:35;;;;;;;17.55;4.82;;;;;;;-1.34;100.00;97609.34;5054872;28;20085;-70
2022/01/06 06:18:11;;;;;;;17.70;4.80;;;;;;;-1.32;100.00;97614.50;5073162;28;20121;-69
2022/01/06 06:20:37;;;;;;;16.42;4.97;;;;;;;-1.46;100.00;97595.28;5055577;28;20079;-69
2022/01/06 06:23:03;;;;;;;15.95;5.60;;;;;;;-1.73;100.00;97558.66;5038341;28;20455;-70
2022/01/06 06:25:29;;;;;;;17.52;5.43;;;;;;;-1.46;100.00;97595.28;5055218;28;20079;-70
2022/01/06 06:27:55;;;;;;;16.15;5.22;;;;;;;-1.24;100.00;97628.81;5071435;28;20048;-70
2022/01/06 06:30:21;;;;;;;16.02;6.38;;;;;;;-1.25;100.00;97620.97;5054445;28;20050;-70
2022/01/06 06:32:47;;;;;;;16.50;5.53;;;;;;;-1.24;100.00;97622.69;5088234;28;20043;-70
2022/01/06 06:35:13;;;;;;;16.88;5.93;;;;;;;-1.29;100.00;97609.78;5054982;28;20040;-69
2022/01/06 06:37:39;;;;;;;24.35;5.45;;;;;;;-1.46;100.00;97575.91;5055183;28;20364;-70
2022/01/06 06:40:05;;;;;;;15.23;6.03;;;;;;;-1.27;100.00;97602.56;5054535;28;20040;-71
2022/01/06 06:42:31;;;;;;;15.27;6.32;;;;;;;-1.19;100.00;97609.03;5072070;28;20052;-70
2022/01/06 06:44:58;;;;;;;20.15;5.78;;;;;;;-1.24;100.00;97602.31;5071907;28;20036;-70
2022/01/06 06:47:24;;;;;;;13.15;5.43;;;;;;;-1.43;100.00;97567.69;5088340;28;20047;-70
2022/01/06 06:49:50;;;;;;;16.45;6.35;;;;;;;-1.18;100.00;97614.19;5071311;28;20105;-70
2022/01/06 06:52:16;;;;;;;18.75;7.43;;;;;;;-1.33;100.00;97587.16;5073805;28;20044;-70
2022/01/06 06:54:42;;;;;;;16.83;6.25;;;;;;;-1.16;100.00;97603.47;5058344;28;20040;-70
2022/01/06 06:57:11;;;;;;;18.38;6.72;;;;;;;-1.15;100.00;97607.78;5042054;28;20040;-70
2022/01/06 06:59:37;;;;;;;17.20;7.20;;;;;;;-1.31;100.00;97584.41;5058242;28;20515;-70
2022/01/06 07:02:03;;;;;;;16.75;6.72;;;;;;;-1.14;100.00;97606.81;5074790;28;20039;-70
2022/01/06 07:04:29;;;;;;;15.75;6.18;;;;;;;-1.17;100.00;97604.41;5074893;28;20051;-70
2022/01/06 07:06:55;;;;;;;17.27;6.88;;;;;;;-1.35;100.00;97575.84;5092900;28;20040;-70
2022/01/06 07:09:21;;;;;;;20.63;8.10;;;;;;;-1.28;100.00;97590.28;5074712;28;20048;-70
2022/01/06 07:11:47;;;;;;;18.25;7.60;;;;;;;-1.17;100.00;97607.94;5041453;28;20097;-70
2022/01/06 07:14:13;;;;;;;20.63;8.10;;;;;;;-1.11;100.00;97606.56;5074478;28;20048;-71
2022/01/06 07:16:39;;;;;;;21.10;9.07;;;;;;;-1.18;100.00;97600.94;5058346;28;20583;-70
2022/01/06 07:19:05;;;;;;;21.48;9.25;;;;;;;-1.23;100.00;97590.72;5058443;28;20043;-70
2022/01/06 07:21:31;;;;;;;22.33;8.80;;;;;;;-1.32;100.00;97583.53;5058442;28;20044;-70
2022/01/06 07:23:57;;;;;;;21.10;7.10;;;;;;;-1.05;100.00;97619.31;5074265;28;20150;-70
2022/01/06 07:26:22;;;;;;;18.88;7.95;;;;;;;-1.12;100.00;97607.53;5057426;28;20124;-70
2022/01/06 07:28:48;;;;;;;19.75;8.15;;;;;;;-1.10;100.00;97624.16;5040895;28;20048;-70
2022/01/06 07:31:14;;;;;;;19.30;7.18;;;;;;;-1.12;100.00;97616.34;5057696;28;20043;-70
2022/01/06 07:33:40;;;;;;;17.15;7.15;;;;;;;-1.16;100.00;97616.72;5040945;28;20083;-71
2022/01/06 07:36:07;;;;;;;19.20;8.13;;;;;;;-1.13;100.00;97619.09;5040095;28;20036;-70
2022/01/06 07:38:33;;;;;;;17.55;7.47;;;;;;;-1.19;100.00;97598.44;5090700;28;20517;-70
2022/01/06 07:40:58;;;;;;;17.10;7.47;;;;;;;-1.07;100.00;97619.44;5057159;28;20044;-70
2022/01/06 07:43:24;;;;;;;16.55;6.80;;;;;;;-1.20;100.00;97596.75;5040511;28;20060;-71
2022/01/06 07:45:50;;;;;;;17.75;7.97;;;;;;;-1.31;100.00;97585.22;5057399;28;20048;-70
2022/01/06 07:48:20;;;;;;;16.80;6.93;;;;;;;-1.20;100.00;97597.59;5057344;28;20513;-70
2022/01/06 07:50:46;;;;;;;20.77;8.50;;;;;;;-1.15;100.00;97595.38;5041225;28;20414;-70
2022/01/06 07:53:12;;;;;;;17.95;7.45;;;;;;;-1.25;100.00;97581.22;5061049;28;20054;-68
2022/01/06 07:55:39;;;;;;;19.42;7.50;;;;;;;-0.99;100.00;97610.81;5053103;28;20530;-77
2022/01/06 07:58:05;;;;;;;19.40;8.15;;;;;;;-1.01;100.00;97615.44;5077959;28;20043;-68
2022/01/06 08:00:31;;;;;;;18.98;7.70;;;;;;;-0.99;100.00;97616.13;5051899;28;20051;-68
2022/01/06 08:02:57;;;;;;;20.70;8.35;;;;;;;-1.00;100.00;97610.00;5083225;28;20499;-65
2022/01/06 08:05:25;;;;;;;21.60;8.95;;;;;;;-1.02;100.00;97598.69;5032026;28;20036;-71
2022/01/06 08:07:52;;;;;;;20.48;9.50;;;;;;;-1.07;100.00;97598.22;5053975;28;20595;-70
2022/01/06 08:10:18;;;;;;;18.95;7.68;;;;;;;-1.15;100.00;97573.34;5068306;28;20040;-69
2022/01/06 08:12:44;;;;;;;19.60;8.80;;;;;;;-0.97;100.00;97599.13;5058668;28;20419;-70
2022/01/06 08:15:14;;;;;;;18.60;8.48;;;;;;;-1.06;100.00;97583.16;5037330;28;20058;-80
2022/01/06 08:17:40;;;;;;;21.60;8.07;;;;;;;-1.04;100.00;97591.81;5072088;28;20102;-74
2022/01/06 08:20:08;;;;;;;20.65;7.80;;;;;;;-0.92;100.00;97601.38;5070433;28;20044;-76
2022/01/06 08:22:35;;;;;;;20.65;8.13;;;;;;;-1.20;100.00;97559.63;5072261;28;20064;-76
2022/01/06 08:25:03;;;;;;;20.38;10.15;;;;;;;-1.11;100.00;97565.00;5045519;28;20044;-73
2022/01/06 08:27:29;;;;;;;21.90;8.88;;;;;;;-0.90;100.00;97603.94;5053350;28;20048;-71
2022/01/06 08:29:56;;;;;;;17.38;8.27;;;;;;;-1.09;100.00;97578.13;5053006;28;20166;-72
2022/01/06 08:32:21;;;;;;;19.15;8.68;;;;;;;-1.13;100.00;97555.47;5070167;28;20475;-69
2022/01/06 08:34:49;;;;;;;20.85;8.82;;;;;;;-0.93;100.00;97594.41;5061371;28;20035;-78
2022/01/06 08:37:17;;;;;;;20.60;8.35;;;;;;;-0.87;100.00;97588.59;5063629;28;20044;-77
2022/01/06 08:39:42;;;;;;;18.83;8.05;;;;;;;-0.73;100.00;97596.22;5046054;28;20052;-76
2022/01/06 08:42:09;;;;;;;21.17;8.88;;;;;;;-0.73;100.00;97590.06;5042104;28;20612;-76
2022/01/06 08:44:36;;;;;;;21.15;9.30;;;;;;;-0.65;100.00;97600.03;5075691;28;20052;-79
2022/01/06 08:47:02;;;;;;;24.33;8.25;;;;;;;-0.65;100.00;97581.44;5038765;28;20062;-82
2022/01/06 08:49:28;;;;;;;20.15;8.05;;;;;;;-0.62;100.00;97594.44;5080279;28;20466;-76
2022/01/06 08:51:54;;;;;;;22.55;9.07;;;;;;;-0.65;100.00;97581.44;5039106;28;20119;-75
2022/01/06 08:54:19;;;;;;;20.30;8.52;;;;;;;-0.58;100.00;97606.50;5062592;28;20115;-79
2022/01/06 08:56:46;;;;;;;22.42;8.15;;;;;;;-0.56;100.00;97596.56;5073055;28;20091;-76
2022/01/06 08:59:11;;;;;;;23.05;8.38;;;;;;;-0.68;100.00;97592.31;5040276;28;20093;-78
2022/01/06 09:01:37;;;;;;;24.33;8.85;;;;;;;-0.80;100.00;97565.03;5069494;28;20059;-77
2022/01/06 09:04:03;;;;;;;24.33;8.18;;;;;;;-0.72;100.00;97570.53;5069691;28;20059;-76
2022/01/06 09:06:29;;;;;;;25.27;9.05;;;;;;;-0.58;100.00;97587.91;5039086;28;20044;-76
2022/01/06 09:08:55;;;;;;;17.40;7.20;;;;;;;-0.86;100.00;97547.00;5070329;28;20049;-76
2022/01/06 09:11:22;;;;;;;17.45;8.45;;;;;;;-0.65;100.00;97578.81;5039583;28;20074;-75
2022/01/06 09:13:47;;;;;;;16.38;6.55;;;;;;;-0.81;100.00;97545.59;5058151;28;20044;-75
2022/01/06 09:16:13;;;;;;;14.98;7.47;;;;;;;-0.90;100.00;97546.41;5056806;28;20507;-76
2022/01/06 09:18:40;;;;;;;19.27;7.05;;;;;;;-0.56;100.00;97580.66;5081590;28;20040;-76
2022/01/06 09:21:07;;;;;;;18.25;6.50;;;;;;;-0.52;100.00;97590.00;5074565;28;20108;-76
2022/01/06 09:23:33;;;;;;;17.83;7.00;;;;;;;-0.50;100.00;97590.75;5090713;28;20047;-75
2022/01/06 09:25:59;;;;;;;15.65;6.68;;;;;;;-0.53;100.00;97585.69;5050338;28;20051;-75
2022/01/06 09:28:25;;;;;;;19.30;8.25;;;;;;;-0.70;100.00;97570.38;5047537;28;20036;-75
2022/01/06 09:30:51;;;;;;;17.63;6.32;;;;;;;-0.67;100.00;97570.13;5078853;28;20063;-74
2022/01/06 09:33:18;;;;;;;24.27;8.25;;;;;;;-0.66;100.00;97571.78;5044613;28;20445;-75
2022/01/06 09:35:45;;;;;;;27.08;10.23;;;;;;;-0.78;100.00;97539.22;5075308;28;20039;-75
2022/01/06 09:38:11;;;;;;;25.48;8.85;;;;;;;-0.46;100.00;97580.69;5077204;28;20409;-73
2022/01/06 09:40:40;;;;;;;20.50;8.30;;;;;;;-0.51;100.00;97578.44;5034508;28;20504;-72
2022/01/06 09:43:06;;;;;;;26.20;9.75;;;;;;;-0.56;100.00;97570.03;5056706;28;20048;-72
2022/01/06 09:45:32;;;;;;;22.63;8.05;;;;;;;-0.50;100.00;97574.81;5051002;28;20041;-73
2022/01/06 09:47:58;;;;;;;17.63;7.80;;;;;;;-0.80;100.00;97536.69;5056243;28;20069;-72
2022/01/06 09:50:24;;;;;;;22.42;8.45;;;;;;;-0.52;100.00;97582.88;5058029;28;20048;-72
2022/01/06 09:52:51;;;;;;;19.48;8.23;;;;;;;-0.54;100.00;97578.72;5084014;28;20063;-72
2022/01/06 09:55:17;;;;;;;19.42;7.50;;;;;;;-0.47;100.00;97576.38;5069326;28;20052;-72
2022/01/06 09:58:10;;;;;;;18.00;8.82;;;;;;;-0.48;100.00;97575.50;5087527;28;20040;-74
2022/01/06 10:00:36;;;;;;;17.60;7.53;;;;;;;-0.67;100.00;97551.56;5047307;28;20177;-74
2022/01/06 10:03:04;;;;;;;17.83;8.38;;;;;;;-0.67;100.00;97559.50;5073988;28;20139;-74
2022/01/06 10:05:42;;;;;;;17.92;8.85;;;;;;;-0.56;100.00;97580.66;5031148;28;20419;-74
2022/01/06 10:08:09;;;;;;;18.92;7.60;;;;;;;-0.63;100.00;97568.88;5067122;28;20109;-74
2022/01/06 10:10:35;;;;;;;23.20;6.82;;;;;;;-0.69;100.00;97556.16;5060408;28;20500;-73
2022/01/06 10:13:06;;;;;;;18.33;7.07;;;;;;;-0.64;100.00;97569.84;5046732;28;20048;-73
2022/01/06 10:15:35;;;;;;;19.77;8.43;;;;;;;-0.61;100.00;97565.13;5053720;28;20071;-74
2022/01/06 10:18:11;;;;;;;19.45;6.80;;;;;;;-0.78;100.00;97532.09;5070478;28;20041;-73
2022/01/06 10:20:37;;;;;;;17.73;6.38;;;;;;;-0.61;100.00;97565.13;5063593;28;20064;-73
2022/01/06 10:23:11;;;;;;;12.85;6.25;;;;;;;-0.56;100.00;97567.38;5068164;28;20452;-74
2022/01/06 10:25:38;;;;;;;17.73;6.40;;;;;;;-0.50;100.00;97570.34;5054854;28;20063;-74
2022/01/06 10:28:18;;;;;;;20.27;7.13;;;;;;;-0.46;100.00;97576.22;5058238;28;20036;-74
2022/01/06 10:30:48;;;;;;;19.13;8.07;;;;;;;-0.52;100.00;97571.44;5081264;28;20048;-74
2022/01/06 10:33:18;;;;;;;19.98;7.65;;;;;;;-0.63;100.00;97547.66;5071630;28;20174;-75
2022/01/06 10:35:44;;;;;;;;;;;;;;;-0.58;100.00;97572.00;5057080;28;20112;-74
2022/01/06 10:38:10;;;;;;;23.65;8.18;;;;;;;-0.63;100.00;97555.63;5056120;28;19916;-75
2022/01/06 10:40:36;;;;;;;19.88;8.25;;;;;;;-0.66;100.00;97548.75;5054598;28;20033;-74
2022/01/06 10:43:05;;;;;;;19.60;8.65;;;;;;;-0.52;100.00;97555.50;5051125;28;20426;-74
2022/01/06 10:45:33;;;;;;;23.15;8.57;;;;;;;-0.54;100.00;97560.13;5054163;28;20052;-74
2022/01/06 10:48:01;;;;;;;27.05;9.65;;;;;;;-0.61;100.00;97545.72;5067348;28;20028;-74
2022/01/06 10:50:28;;;;;;;19.33;8.40;;;;;;;-0.47;100.00;97563.94;5030616;28;20048;-75
2022/01/06 10:52:58;;;;;;;19.08;8.93;;;;;;;-0.53;100.00;97545.88;5076966;28;20035;-74
2022/01/06 10:55:27;;;;;;;25.33;10.23;;;;;;;-0.46;100.00;97555.00;5069442;28;20055;-74
2022/01/06 10:58:11;;;;;;;22.25;8.93;;;;;;;-0.44;100.00;97558.34;5063019;28;20071;-75
2022/01/06 11:00:38;;;;;;;19.70;7.93;;;;;;;-0.35;100.00;97557.53;5080753;28;20452;-74
2022/01/06 11:03:08;;;;;;;23.02;9.60;;;;;;;-0.56;100.00;97522.25;5057107;28;20066;-75
2022/01/06 11:05:35;;;;;;;27.98;10.57;;;;;;;-0.26;100.00;97562.06;5064624;28;20093;-74
2022/01/06 11:08:03;;;;;;;26.25;10.45;;;;;;;-0.20;100.00;97549.22;5074047;28;20051;-75
2022/01/06 11:10:29;;;;;;;19.17;9.15;;;;;;;-0.34;100.00;97527.38;5083422;28;20058;-74
2022/01/06 11:12:55;;;;;;;23.77;10.43;;;;;;;-0.38;100.00;97525.97;5075288;28;20076;-74
2022/01/06 11:15:21;;;;;;;23.88;10.40;;;;;;;-0.12;100.00;97557.31;5063688;28;20122;-74
2022/01/06 11:17:48;;;;;;;23.35;9.75;;;;;;;0.00;100.00;97545.63;5041390;28;20415;-74
2022/01/06 11:20:23;;;;;;;16.65;7.03;;;;;;;-0.13;100.00;97540.56;5066383;28;20083;-79